Time;durP1;ratioP1;P1;durP2;ratioP2;P2;SDS_P1;SDS_P2;PMS_P1;PMS_P2;Temp;Humidity;BMP_temperature;BMP_pressure;BME280_temperature;BME280_humidity;BME280_pressure;Samples;Min_cycle;Max_cycle;Signal;HPM_P1;HPM_P2
2023/08/16 00:02:15;;;;;;;13.63;7.33;;;20.50;45.00;;;;;;5051992;28;46763;-69
2023/08/16 00:04:42;;;;;;;12.57;6.10;;;20.50;44.00;;;;;;5056735;28;46712;-68
2023/08/16 00:07:07;;;;;;;13.60;7.30;;;20.50;45.20;;;;;;5050817;28;45871;-69
2023/08/16 00:09:33;;;;;;;16.87;8.87;;;20.40;45.60;;;;;;5053787;28;45968;-69
2023/08/16 00:11:59;;;;;;;11.57;7.73;;;20.30;47.40;;;;;;5050644;28;46465;-71
2023/08/16 00:14:25;;;;;;;10.43;6.90;;;20.20;46.80;;;;;;5042714;28;46419;-69
2023/08/16 00:16:50;;;;;;;14.60;8.83;;;20.20;47.90;;;;;;5058154;28;46391;-69
2023/08/16 00:19:16;;;;;;;12.17;7.77;;;20.20;49.00;;;;;;5044402;28;46817;-69
2023/08/16 00:21:42;;;;;;;11.80;7.33;;;20.30;48.30;;;;;;5032567;28;46837;-68
2023/08/16 00:24:07;;;;;;;12.33;7.57;;;20.20;48.60;;;;;;5061779;28;46359;-68
2023/08/16 00:26:33;;;;;;;12.67;7.80;;;20.20;48.80;;;;;;5057563;28;46382;-69
2023/08/16 00:28:59;;;;;;;10.87;8.00;;;20.30;48.60;;;;;;5059387;28;46463;-69
2023/08/16 00:31:25;;;;;;;17.97;8.70;;;20.30;48.00;;;;;;5050646;28;46402;-68
2023/08/16 00:33:51;;;;;;;14.50;7.57;;;20.40;48.00;;;;;;5058031;28;46332;-69
2023/08/16 00:36:17;;;;;;;12.27;7.00;;;20.40;48.00;;;;;;5051717;28;46483;-69
2023/08/16 00:38:42;;;;;;;15.90;7.80;;;20.40;48.10;;;;;;5047899;28;46981;-68
2023/08/16 00:41:12;;;;;;;10.60;7.40;;;20.40;48.00;;;;;;5045357;28;46472;-68
2023/08/16 00:43:38;;;;;;;11.83;6.90;;;20.40;48.00;;;;;;5056942;28;46681;-69
2023/08/16 00:46:06;;;;;;;11.57;7.53;;;20.30;46.90;;;;;;5058641;28;46725;-68
2023/08/16 00:48:33;;;;;;;13.20;7.43;;;20.30;48.00;;;;;;5054794;28;46423;-68
2023/08/16 00:50:59;;;;;;;12.23;7.27;;;20.20;48.10;;;;;;5050866;28;46393;-69
2023/08/16 00:53:29;;;;;;;11.10;7.40;;;20.20;47.90;;;;;;5035888;28;46724;-69
2023/08/16 00:55:55;;;;;;;18.93;7.27;;;20.10;47.40;;;;;;5061872;28;46816;-70
2023/08/16 00:58:21;;;;;;;9.37;7.43;;;20.10;48.30;;;;;;5026930;28;48020;-68
2023/08/16 01:00:47;;;;;;;10.73;6.93;;;20.00;48.60;;;;;;5058223;28;46703;-69
2023/08/16 01:03:12;;;;;;;17.33;7.37;;;19.90;49.00;;;;;;5055796;28;46423;-69
2023/08/16 01:05:38;;;;;;;14.50;7.30;;;19.70;49.20;;;;;;5050092;28;46745;-69
2023/08/16 01:08:04;;;;;;;16.20;7.07;;;19.70;49.70;;;;;;5058892;28;46202;-69
2023/08/16 01:10:58;;;;;;;14.03;6.60;;;19.60;49.70;;;;;;5051616;28;46200;-69
2023/08/16 01:13:34;;;;;;;13.17;7.13;;;19.60;49.90;;;;;;5059179;28;45740;-69
2023/08/16 01:16:07;;;;;;;11.37;5.77;;;19.60;48.70;;;;;;5032247;28;46465;-69
2023/08/16 01:18:35;;;;;;;16.43;7.63;;;19.60;49.60;;;;;;5062474;28;47302;-68
2023/08/16 01:21:01;;;;;;;10.70;6.83;;;19.50;49.40;;;;;;5054209;28;45820;-69
2023/08/16 01:23:48;;;;;;;16.07;8.07;;;19.50;49.60;;;;;;5053086;28;46435;-70
2023/08/16 01:26:33;;;;;;;11.80;8.33;;;19.40;49.00;;;;;;5062319;28;46446;-69
2023/08/16 01:29:01;;;;;;;12.13;7.77;;;19.40;50.00;;;;;;5061819;28;46097;-69
2023/08/16 01:31:27;;;;;;;11.83;7.63;;;19.30;49.80;;;;;;5058676;28;45814;-70
2023/08/16 01:33:52;;;;;;;12.53;8.30;;;19.30;49.80;;;;;;5048952;28;46438;-69
2023/08/16 01:36:18;;;;;;;18.67;8.90;;;19.20;49.10;;;;;;5058010;28;46623;-69
2023/08/16 01:38:44;;;;;;;13.10;7.50;;;19.20;50.10;;;;;;5054003;28;46796;-69
2023/08/16 01:41:22;;;;;;;13.20;7.90;;;19.20;50.20;;;;;;5062361;28;45869;-69
2023/08/16 01:43:48;;;;;;;17.73;7.97;;;19.20;50.50;;;;;;5061200;28;46613;-68
2023/08/16 01:46:15;;;;;;;13.83;7.37;;;19.20;49.70;;;;;;5061151;28;46459;-70
2023/08/16 01:48:43;;;;;;;12.50;7.70;;;19.20;50.50;;;;;;5061894;28;46608;-69
2023/08/16 01:51:09;;;;;;;12.77;7.90;;;19.10;50.30;;;;;;5053197;28;46396;-69
2023/08/16 01:53:35;;;;;;;18.97;6.87;;;19.10;50.50;;;;;;5053269;28;46466;-69
2023/08/16 01:56:01;;;;;;;12.60;7.60;;;19.00;49.60;;;;;;5053640;28;46376;-68
2023/08/16 01:58:27;;;;;;;12.57;8.33;;;19.00;50.50;;;;;;5050536;28;46410;-70
2023/08/16 02:00:52;;;;;;;13.80;8.03;;;19.10;50.50;;;;;;5061720;28;46399;-69
2023/08/16 02:03:18;;;;;;;14.60;8.20;;;19.10;50.60;;;;;;5061462;28;46490;-69
2023/08/16 02:05:44;;;;;;;11.20;7.73;;;19.10;50.20;;;;;;5043028;28;46638;-69
2023/08/16 02:08:10;;;;;;;12.00;8.10;;;19.10;51.30;;;;;;5026677;28;46404;-70
2023/08/16 02:10:36;;;;;;;12.27;8.23;;;19.10;51.70;;;;;;5061777;28;46410;-68
2023/08/16 02:13:02;;;;;;;17.67;8.23;;;19.10;52.10;;;;;;5053874;28;46430;-69
2023/08/16 02:15:28;;;;;;;12.57;7.73;;;19.00;52.00;;;;;;5052055;28;46872;-69
2023/08/16 02:17:54;;;;;;;14.53;7.80;;;19.00;54.40;;;;;;5054871;28;46348;-69
2023/08/16 02:20:20;;;;;;;18.57;8.57;;;19.00;53.80;;;;;;5064982;28;46473;-70
2023/08/16 02:22:45;;;;;;;10.97;8.17;;;19.00;54.20;;;;;;5056153;28;46387;-68
2023/08/16 02:25:11;;;;;;;12.60;7.70;;;18.90;54.30;;;;;;5041276;28;46458;-69
2023/08/16 02:27:37;;;;;;;13.73;8.27;;;19.00;56.40;;;;;;5054036;28;46394;-70
2023/08/16 02:30:04;;;;;;;14.80;8.73;;;18.90;55.30;;;;;;5050762;28;46473;-69
2023/08/16 02:32:30;;;;;;;14.30;8.73;;;18.90;55.70;;;;;;5050267;28;46507;-69
2023/08/16 02:34:56;;;;;;;17.57;9.00;;;18.90;55.40;;;;;;5041396;28;46963;-68
2023/08/16 02:37:23;;;;;;;11.60;8.10;;;18.90;56.30;;;;;;5057546;28;47040;-68
2023/08/16 02:39:48;;;;;;;16.37;8.87;;;18.90;56.60;;;;;;5047978;28;46459;-68
2023/08/16 02:42:14;;;;;;;16.00;8.10;;;18.80;56.60;;;;;;5080916;28;46407;-69
2023/08/16 02:44:40;;;;;;;10.80;8.00;;;18.80;55.90;;;;;;5060611;28;45870;-69
2023/08/16 02:47:05;;;;;;;10.77;8.00;;;18.80;57.00;;;;;;5052433;28;46435;-69
2023/08/16 02:49:31;;;;;;;15.10;8.80;;;18.80;57.10;;;;;;5060972;28;46451;-69
2023/08/16 02:51:56;;;;;;;15.90;7.97;;;18.70;57.00;;;;;;5061436;28;46436;-69
2023/08/16 02:54:22;;;;;;;11.90;8.50;;;18.60;56.10;;;;;;5052951;28;46679;-69
2023/08/16 02:56:47;;;;;;;17.63;8.77;;;18.60;57.30;;;;;;5055793;28;46298;-69
2023/08/16 02:59:14;;;;;;;12.50;8.60;;;18.50;57.60;;;;;;5041324;28;46433;-69
2023/08/16 03:01:39;;;;;;;14.30;8.90;;;18.50;57.70;;;;;;5048711;28;46671;-69
2023/08/16 03:04:05;;;;;;;16.50;8.73;;;18.40;58.40;;;;;;5048912;28;46484;-69
2023/08/16 03:06:31;;;;;;;19.60;8.80;;;18.30;58.30;;;;;;5060820;28;47357;-70
2023/08/16 03:08:56;;;;;;;15.93;8.80;;;18.30;59.40;;;;;;5059993;28;46597;-69
2023/08/16 03:11:22;;;;;;;14.63;9.70;;;18.30;59.30;;;;;;5045568;28;46423;-69
2023/08/16 03:13:47;;;;;;;13.87;9.20;;;18.30;59.40;;;;;;5040687;28;46495;-68
2023/08/16 03:16:13;;;;;;;13.53;9.50;;;18.20;58.20;;;;;;5038904;28;47026;-68
2023/08/16 03:18:38;;;;;;;12.50;8.50;;;18.20;59.30;;;;;;5061155;28;46509;-68
2023/08/16 03:21:04;;;;;;;17.37;9.57;;;18.20;59.20;;;;;;5060362;28;46579;-69
2023/08/16 03:23:30;;;;;;;14.23;9.03;;;18.20;60.30;;;;;;5060747;28;46798;-69
2023/08/16 03:25:56;;;;;;;16.47;8.07;;;18.20;58.20;;;;;;5061227;28;46476;-69
2023/08/16 03:28:21;;;;;;;14.73;8.23;;;18.20;59.30;;;;;;5063197;28;45851;-70
2023/08/16 03:30:47;;;;;;;12.90;8.80;;;18.10;59.10;;;;;;5063273;28;46454;-68
2023/08/16 03:33:12;;;;;;;16.70;9.30;;;18.10;59.10;;;;;;5060254;28;46473;-70
2023/08/16 03:35:38;;;;;;;15.43;9.40;;;18.10;58.10;;;;;;5061294;28;46777;-70
2023/08/16 03:38:04;;;;;;;16.03;8.93;;;18.10;59.20;;;;;;5064599;28;46418;-69
2023/08/16 03:40:29;;;;;;;19.87;9.40;;;18.10;59.10;;;;;;5071114;28;46522;-69
2023/08/16 03:42:55;;;;;;;11.37;7.90;;;18.10;59.10;;;;;;5060813;28;46487;-68
2023/08/16 03:45:25;;;;;;;13.27;8.87;;;18.00;58.00;;;;;;5047147;28;46403;-68
2023/08/16 03:47:56;;;;;;;16.47;10.30;;;18.00;59.10;;;;;;5049155;28;46213;-68
2023/08/16 03:50:22;;;;;;;14.40;10.30;;;18.00;59.10;;;;;;5063632;28;46754;-68
2023/08/16 03:52:48;;;;;;;22.30;12.20;;;18.00;59.00;;;;;;5057612;28;46453;-69
2023/08/16 03:55:13;;;;;;;19.07;9.80;;;18.00;58.00;;;;;;5056822;28;46507;-68
2023/08/16 03:57:39;;;;;;;13.60;10.03;;;18.10;59.20;;;;;;5060888;28;46331;-68
2023/08/16 04:00:10;;;;;;;19.23;10.73;;;18.10;59.10;;;;;;5056112;28;46443;-69
2023/08/16 04:02:36;;;;;;;17.17;10.50;;;18.10;59.10;;;;;;5064664;28;46476;-68
2023/08/16 04:05:08;;;;;;;16.30;10.47;;;18.10;59.10;;;;;;5059362;28;46529;-68
2023/08/16 04:07:34;;;;;;;19.87;10.67;;;18.10;59.30;;;;;;5032496;28;46338;-68
2023/08/16 04:09:59;;;;;;;16.77;10.80;;;18.10;59.20;;;;;;5048774;28;46392;-69
2023/08/16 04:12:25;;;;;;;13.30;10.70;;;18.10;59.10;;;;;;5052280;28;46190;-68
2023/08/16 04:14:51;;;;;;;16.13;10.33;;;;;;;;;;5062200;28;47369;-70
2023/08/16 04:17:17;;;;;;;17.20;11.10;;;18.10;58.20;;;;;;5056572;28;46331;-70
2023/08/16 04:19:43;;;;;;;16.50;10.90;;;18.10;59.50;;;;;;5050834;28;46328;-70
2023/08/16 04:22:08;;;;;;;18.17;11.03;;;18.20;59.50;;;;;;5048521;28;46460;-68
2023/08/16 04:24:34;;;;;;;16.83;10.80;;;18.20;59.30;;;;;;5056334;28;46536;-71
2023/08/16 04:26:59;;;;;;;18.03;11.30;;;18.10;59.80;;;;;;5030859;28;46412;-69
2023/08/16 04:29:25;;;;;;;21.80;10.00;;;18.20;60.00;;;;;;5051091;28;46523;-69
2023/08/16 04:31:50;;;;;;;17.63;11.07;;;18.20;59.80;;;;;;5058167;28;46611;-69
2023/08/16 04:34:16;;;;;;;16.83;9.03;;;18.20;59.70;;;;;;5064149;28;46438;-69
2023/08/16 04:36:41;;;;;;;12.53;9.00;;;18.20;58.80;;;;;;5062943;28;46679;-68
2023/08/16 04:39:08;;;;;;;14.63;8.87;;;18.20;59.70;;;;;;5050929;28;46701;-69
2023/08/16 04:41:33;;;;;;;13.83;9.20;;;18.30;59.40;;;;;;5057220;28;46203;-69
2023/08/16 04:43:59;;;;;;;14.10;8.00;;;18.40;59.40;;;;;;5062392;28;46515;-69
2023/08/16 04:46:25;;;;;;;12.80;8.17;;;18.40;58.30;;;;;;5040705;28;46477;-68
2023/08/16 04:48:50;;;;;;;11.27;6.83;;;18.30;59.40;;;;;;5053361;28;46601;-68
2023/08/16 04:51:17;;;;;;;9.70;6.90;;;18.20;59.20;;;;;;5051481;28;46403;-68
2023/08/16 04:53:44;;;;;;;12.70;7.20;;;18.20;59.30;;;;;;5053595;28;46473;-68
2023/08/16 04:56:09;;;;;;;11.57;6.60;;;18.20;58.20;;;;;;5059163;28;46538;-69
2023/08/16 04:58:35;;;;;;;12.33;7.03;;;18.30;59.30;;;;;;5060316;28;46768;-68
2023/08/16 05:01:00;;;;;;;11.43;7.60;;;18.30;59.30;;;;;;5037913;28;46838;-69
2023/08/16 05:03:26;;;;;;;17.80;8.53;;;18.30;59.30;;;;;;5063989;28;46553;-69
2023/08/16 05:06:00;;;;;;;11.20;7.03;;;18.70;57.50;;;;;;5043841;28;46938;-70
2023/08/16 05:08:26;;;;;;;16.30;6.20;;;19.30;58.00;;;;;;5060356;28;46474;-69
2023/08/16 05:10:51;;;;;;;7.93;5.63;;;20.60;58.10;;;;;;5061644;28;46776;-69
2023/08/16 05:13:17;;;;;;;8.80;5.40;;;21.40;56.00;;;;;;5053671;28;46466;-70
2023/08/16 05:15:45;;;;;;;10.07;5.13;;;22.30;53.80;;;;;;5056086;28;46773;-69
2023/08/16 05:18:11;;;;;;;8.90;4.80;;;23.10;51.10;;;;;;5058448;28;46706;-69
2023/08/16 05:20:37;;;;;;;9.53;5.40;;;23.90;48.20;;;;;;5062941;28;46669;-69
2023/08/16 05:23:03;;;;;;;6.97;4.93;;;24.60;44.80;;;;;;5062174;28;46538;-69
2023/08/16 05:25:29;;;;;;;9.23;5.40;;;25.60;38.80;;;;;;5051986;28;46676;-68
2023/08/16 05:27:58;;;;;;;8.60;5.07;;;25.80;39.20;;;;;;5053859;28;46471;-69
2023/08/16 05:30:24;;;;;;;6.80;4.50;;;26.30;37.30;;;;;;5040983;28;46480;-70
2023/08/16 05:32:50;;;;;;;9.17;5.30;;;26.70;35.30;;;;;;5065907;28;46404;-69
2023/08/16 05:35:15;;;;;;;10.93;4.70;;;27.30;31.60;;;;;;5059157;28;46387;-69
2023/08/16 05:37:41;;;;;;;8.63;5.00;;;27.40;32.40;;;;;;5062733;28;46456;-69
2023/08/16 05:40:09;;;;;;;9.20;4.63;;;27.50;31.10;;;;;;5061283;28;46407;-68
2023/08/16 05:42:34;;;;;;;9.63;4.80;;;27.90;29.90;;;;;;5048602;28;47140;-69
2023/08/16 05:45:00;;;;;;;10.77;5.00;;;28.70;27.10;;;;;;5060425;28;46671;-70
2023/08/16 05:47:25;;;;;;;8.27;4.67;;;28.90;27.30;;;;;;5056798;28;46749;-68
2023/08/16 05:49:51;;;;;;;8.07;5.10;;;29.20;25.80;;;;;;5040637;28;46490;-69
2023/08/16 05:52:17;;;;;;;7.03;4.83;;;29.50;24.90;;;;;;5057565;28;47011;-70
2023/08/16 05:54:42;;;;;;;11.33;4.73;;;29.60;22.60;;;;;;5056797;28;46475;-69
2023/08/16 05:57:08;;;;;;;7.23;4.33;;;29.90;23.00;;;;;;5042013;28;45848;-70
2023/08/16 05:59:33;;;;;;;11.83;5.13;;;30.20;22.10;;;;;;5057156;28;46735;-71
2023/08/16 06:01:59;;;;;;;11.70;4.40;;;30.40;20.70;;;;;;5063500;28;47533;-69
2023/08/16 06:04:25;;;;;;;10.20;5.33;;;30.80;18.90;;;;;;5056407;28;46712;-71
2023/08/16 06:06:51;;;;;;;7.57;4.60;;;30.80;19.50;;;;;;5059557;28;46494;-69
2023/08/16 06:09:16;;;;;;;7.53;5.07;;;31.00;18.10;;;;;;5059443;28;46319;-69
2023/08/16 06:11:48;;;;;;;9.80;4.40;;;31.30;16.10;;;;;;5061855;22;47818;-67
2023/08/16 06:14:15;;;;;;;9.83;5.20;;;31.40;16.60;;;;;;5002641;28;46446;-68
2023/08/16 06:16:44;;;;;;;10.97;4.57;;;31.50;14.90;;;;;;5025784;28;46523;-68
2023/08/16 06:19:10;;;;;;;7.63;4.50;;;31.60;14.90;;;;;;5034986;28;45928;-68
2023/08/16 06:21:40;;;;;;;7.73;4.30;;;31.70;13.20;;;;;;5008623;28;48274;-68
2023/08/16 06:24:11;;;;;;;7.67;4.70;;;31.70;13.70;;;;;;5007277;28;46463;-68
2023/08/16 06:26:38;;;;;;;8.13;4.37;;;31.70;12.30;;;;;;5050229;28;46414;-68
2023/08/16 06:29:03;;;;;;;8.43;5.17;;;31.90;12.90;;;;;;5036586;28;46436;-69
2023/08/16 06:31:33;;;;;;;7.00;4.80;;;31.90;12.20;;;;;;5034660;28;46779;-67
2023/08/16 06:34:00;;;;;;;6.53;4.63;;;31.90;11.50;;;;;;5012750;28;46849;-68
2023/08/16 06:36:29;;;;;;;5.87;3.80;;;30.80;13.20;;;;;;5015688;28;45869;-67
2023/08/16 06:38:54;;;;;;;5.80;4.17;;;29.80;17.20;;;;;;5031440;28;46175;-69
2023/08/16 06:41:20;;;;;;;12.77;5.30;;;28.80;18.80;;;;;;5028240;28;46489;-67
2023/08/16 06:43:46;;;;;;;8.60;4.77;;;28.20;19.80;;;;;;5024118;28;46914;-70
2023/08/16 06:46:12;;;;;;;6.40;4.57;;;29.10;15.40;;;;;;5028199;28;46333;-68
2023/08/16 06:48:37;;;;;;;9.33;4.67;;;29.80;14.20;;;;;;5032239;28;46495;-68
2023/08/16 06:51:04;;;;;;;6.37;4.53;;;30.40;12.40;;;;;;5029967;28;46447;-69
2023/08/16 06:53:32;;;;;;;9.30;4.93;;;30.90;11.10;;;;;;5027930;28;46615;-70
2023/08/16 06:55:58;;;;;;;10.40;5.53;;;31.30;8.50;;;;;;5029333;28;46778;-68
2023/08/16 06:58:24;;;;;;;6.93;4.70;;;31.10;9.80;;;;;;5024621;28;46438;-68
2023/08/16 07:00:49;;;;;;;12.43;5.77;;;29.80;13.20;;;;;;5028290;28;46713;-68
2023/08/16 07:03:16;;;;;;;9.50;5.53;;;28.40;16.70;;;;;;5028313;28;46602;-69
2023/08/16 07:05:41;;;;;;;14.83;4.80;;;27.50;18.50;;;;;;5029702;28;46474;-69
2023/08/16 07:08:07;;;;;;;15.93;5.60;;;27.30;20.10;;;;;;5027875;28;46206;-68
2023/08/16 07:10:33;;;;;;;13.50;4.77;;;26.90;21.40;;;;;;5031062;28;46865;-69
2023/08/16 07:12:58;;;;;;;6.47;4.00;;;26.70;22.10;;;;;;5030376;28;46483;-69
2023/08/16 07:15:24;;;;;;;7.70;4.83;;;26.30;22.30;;;;;;5030290;28;46559;-69
2023/08/16 07:17:50;;;;;;;10.57;5.00;;;26.30;23.30;;;;;;5034426;28;46743;-69
2023/08/16 07:20:15;;;;;;;6.80;4.83;;;26.30;23.50;;;;;;5036957;28;46547;-69
2023/08/16 07:22:41;;;;;;;7.60;5.20;;;26.40;23.40;;;;;;5027807;28;46608;-68
2023/08/16 07:25:08;;;;;;;7.13;4.60;;;26.00;23.50;;;;;;5031133;28;46579;-69
2023/08/16 07:27:34;;;;;;;14.00;4.77;;;25.90;24.40;;;;;;5029767;28;46727;-69
2023/08/16 07:30:00;;;;;;;8.00;4.47;;;26.10;24.20;;;;;;5032671;28;47272;-69
2023/08/16 07:32:25;;;;;;;5.70;4.33;;;26.10;24.10;;;;;;5029286;28;46368;-68
2023/08/16 07:34:51;;;;;;;10.30;4.30;;;26.10;23.30;;;;;;5031050;28;46430;-69
2023/08/16 07:37:17;;;;;;;5.90;3.97;;;26.10;24.30;;;;;;5030064;28;46873;-68
2023/08/16 07:39:44;;;;;;;6.93;4.50;;;26.10;24.40;;;;;;5030258;28;46806;-69
2023/08/16 07:42:09;;;;;;;9.47;4.13;;;26.20;24.00;;;;;;5028915;28;46464;-70
2023/08/16 07:44:36;;;;;;;9.17;4.30;;;26.40;22.40;;;;;;5031746;28;46236;-70
2023/08/16 07:47:01;;;;;;;6.93;3.70;;;26.50;23.10;;;;;;5027284;28;46436;-69
2023/08/16 07:49:27;;;;;;;8.37;4.20;;;26.60;23.00;;;;;;5020888;28;47990;-69
2023/08/16 07:51:56;;;;;;;8.93;4.60;;;26.70;22.90;;;;;;5031770;28;46455;-69
2023/08/16 07:54:22;;;;;;;10.23;4.77;;;;;;;;;;5029455;28;46518;-68
2023/08/16 07:56:47;;;;;;;6.70;4.40;;;26.70;22.00;;;;;;5028271;28;46396;-68
2023/08/16 07:59:13;;;;;;;6.87;3.83;;;26.70;22.90;;;;;;5029983;28;46441;-69
2023/08/16 08:01:40;;;;;;;8.63;4.13;;;26.70;22.80;;;;;;5031862;28;46477;-69
2023/08/16 08:04:06;;;;;;;6.57;4.50;;;26.70;22.90;;;;;;5030347;28;46609;-71
2023/08/16 08:06:32;;;;;;;6.57;3.60;;;26.60;22.10;;;;;;5031645;28;46743;-68
2023/08/16 08:08:58;;;;;;;7.10;3.57;;;26.70;23.00;;;;;;5027596;28;47262;-70
2023/08/16 08:11:23;;;;;;;7.40;4.10;;;26.80;22.90;;;;;;5031121;28;46514;-68
2023/08/16 08:13:49;;;;;;;7.60;4.03;;;26.90;22.70;;;;;;5026994;28;46768;-70
2023/08/16 08:16:14;;;;;;;6.20;4.17;;;26.90;21.70;;;;;;5031349;28;45900;-69
2023/08/16 08:18:40;;;;;;;7.10;3.53;;;27.00;22.60;;;;;;5033438;28;47327;-68
2023/08/16 08:21:05;;;;;;;9.03;4.00;;;27.00;22.00;;;;;;5027839;28;46679;-68
2023/08/16 08:23:31;;;;;;;8.93;4.13;;;27.00;21.70;;;;;;5028029;28;45809;-70
2023/08/16 08:25:56;;;;;;;7.53;3.83;;;26.90;20.90;;;;;;5029974;28;46449;-69
2023/08/16 08:28:22;;;;;;;8.07;4.03;;;26.90;21.80;;;;;;5034055;28;46513;-69
2023/08/16 08:30:48;;;;;;;9.53;4.00;;;26.90;21.80;;;;;;5027365;28;46694;-69
2023/08/16 08:33:14;;;;;;;6.40;3.43;;;26.80;21.80;;;;;;5029803;28;46859;-69
2023/08/16 08:35:40;;;;;;;5.37;2.87;;;27.00;20.60;;;;;;5028156;28;46381;-70
2023/08/16 08:38:05;;;;;;;5.40;3.20;;;27.10;21.20;;;;;;5028728;28;46726;-69
2023/08/16 08:40:31;;;;;;;5.10;3.10;;;27.20;20.50;;;;;;5030948;28;46389;-70
2023/08/16 08:43:01;;;;;;;5.93;3.07;;;27.30;19.60;;;;;;5027621;28;46434;-69
2023/08/16 08:45:27;;;;;;;4.43;3.10;;;27.60;18.10;;;;;;5031273;28;46512;-69
2023/08/16 08:47:57;;;;;;;5.47;3.00;;;27.60;18.80;;;;;;5027123;28;47190;-70
2023/08/16 08:50:23;;;;;;;6.90;2.90;;;27.50;19.10;;;;;;5031124;28;46363;-68
2023/08/16 08:52:51;;;;;;;4.17;3.00;;;27.50;18.20;;;;;;5029397;28;46465;-69
2023/08/16 08:55:18;;;;;;;6.03;2.77;;;27.60;17.00;;;;;;5031853;28;46813;-69
2023/08/16 08:57:50;;;;;;;6.43;3.10;;;27.70;17.70;;;;;;5027641;28;47356;-69
2023/08/16 09:00:18;;;;;;;6.13;2.50;;;27.80;17.30;;;;;;5028131;28;46770;-69
2023/08/16 09:02:46;;;;;;;4.87;2.90;;;28.00;16.50;;;;;;5033489;28;46420;-68
2023/08/16 09:05:13;;;;;;;5.17;3.10;;;27.70;16.20;;;;;;5030322;28;46503;-69
2023/08/16 09:07:41;;;;;;;7.50;3.17;;;27.70;17.00;;;;;;5030839;28;46148;-69
2023/08/16 09:10:08;;;;;;;5.80;2.70;;;27.80;16.70;;;;;;5041972;28;46436;-69
2023/08/16 09:12:35;;;;;;;5.73;2.70;;;28.10;16.60;;;;;;5026197;28;46410;-69
2023/08/16 09:15:01;;;;;;;4.70;2.87;;;28.20;15.30;;;;;;5029811;28;46448;-70
2023/08/16 09:17:28;;;;;;;6.10;2.80;;;28.30;16.00;;;;;;5026917;28;46512;-68
2023/08/16 09:19:54;;;;;;;7.67;3.13;;;28.50;15.80;;;;;;5026775;28;46782;-69
2023/08/16 09:22:20;;;;;;;4.60;2.60;;;28.70;15.50;;;;;;5027499;28;46464;-69
2023/08/16 09:24:46;;;;;;;7.40;2.83;;;28.80;14.50;;;;;;5026304;28;46941;-69
2023/08/16 09:27:11;;;;;;;5.60;2.80;;;28.70;14.90;;;;;;5030948;28;45985;-69
2023/08/16 09:29:40;;;;;;;5.33;2.53;;;28.70;14.70;;;;;;5026197;28;46464;-68
2023/08/16 09:32:07;;;;;;;5.80;3.00;;;28.80;14.40;;;;;;5024968;28;46502;-68
2023/08/16 09:34:33;;;;;;;8.73;3.30;;;28.70;13.40;;;;;;5026810;28;46695;-70
2023/08/16 09:37:02;;;;;;;10.13;2.63;;;28.70;14.00;;;;;;5027566;28;46681;-69
2023/08/16 09:39:28;;;;;;;5.50;2.60;;;28.70;13.60;;;;;;5030840;28;46484;-69
2023/08/16 09:41:54;;;;;;;4.37;2.50;;;28.80;13.50;;;;;;5029076;28;46345;-70
2023/08/16 09:44:19;;;;;;;6.50;2.83;;;28.80;13.60;;;;;;5015825;28;46492;-68
2023/08/16 09:46:46;;;;;;;5.77;2.53;;;28.80;12.30;;;;;;5029297;28;46587;-70
2023/08/16 09:49:12;;;;;;;3.70;2.30;;;28.90;13.10;;;;;;5028089;28;46713;-69
2023/08/16 09:51:40;;;;;;;4.93;2.80;;;29.00;12.80;;;;;;5026830;28;46504;-69
2023/08/16 09:54:12;;;;;;;8.33;2.60;;;29.20;12.30;;;;;;5022980;28;46490;-71
2023/08/16 09:56:38;;;;;;;4.53;2.47;;;29.00;10.40;;;;;;5026202;28;46464;-69
2023/08/16 09:59:07;;;;;;;4.77;2.60;;;29.00;11.90;;;;;;5027676;28;46460;-68
2023/08/16 10:01:33;;;;;;;6.07;2.73;;;29.00;11.40;;;;;;5024483;28;46476;-69
2023/08/16 10:03:59;;;;;;;3.93;2.43;;;29.10;11.50;;;;;;5028104;28;46788;-69
2023/08/16 10:06:26;;;;;;;3.90;2.43;;;29.20;10.10;;;;;;5027664;28;46812;-69
2023/08/16 10:08:52;;;;;;;4.70;2.43;;;29.20;11.00;;;;;;5025239;28;46500;-68
2023/08/16 10:11:23;;;;;;;4.37;1.90;;;29.30;10.90;;;;;;5029165;28;46468;-68
2023/08/16 10:13:48;;;;;;;5.60;2.37;;;29.40;10.40;;;;;;5026786;28;46475;-68
2023/08/16 10:16:15;;;;;;;4.60;2.27;;;29.50;8.80;;;;;;5027656;28;46359;-69
2023/08/16 10:18:42;;;;;;;4.13;2.20;;;29.40;9.60;;;;;;5024913;28;46448;-75
2023/08/16 10:21:13;;;;;;;5.73;2.67;;;29.40;9.20;;;;;;5027982;28;46498;-69
2023/08/16 10:23:40;;;;;;;4.50;2.37;;;29.40;8.80;;;;;;5025669;28;46397;-74
2023/08/16 10:26:19;;;;;;;6.27;2.50;;;29.50;7.70;;;;;;5029457;28;47015;-69
2023/08/16 10:28:50;;;;;;;4.40;2.40;;;29.50;8.60;;;;;;5023131;28;46464;-74
2023/08/16 10:31:20;;;;;;;6.00;2.40;;;29.50;8.50;;;;;;5022452;28;46205;-69
2023/08/16 10:33:49;;;;;;;3.87;2.53;;;29.40;8.60;;;;;;5007740;28;46546;-68
2023/08/16 10:36:16;;;;;;;9.37;2.37;;;29.40;8.10;;;;;;5022111;28;46552;-69
2023/08/16 10:38:42;;;;;;;5.40;2.73;;;29.60;8.80;;;;;;5024850;28;46499;-70
2023/08/16 10:41:15;;;;;;;7.40;2.10;;;29.60;8.80;;;;;;5025431;28;46405;-69
2023/08/16 10:43:51;;;;;;;5.00;2.23;;;29.50;8.00;;;;;;5024266;28;46963;-67
2023/08/16 10:46:27;;;;;;;6.00;2.30;;;29.50;6.90;;;;;;5026631;28;46710;-69
2023/08/16 10:49:15;;;;;;;3.90;2.10;;;29.50;7.70;;;;;;5024796;28;46739;-68
2023/08/16 10:51:48;;;;;;;4.37;2.17;;;29.40;7.60;;;;;;5025282;28;46464;-68
2023/08/16 10:54:15;;;;;;;4.90;2.40;;;29.50;7.30;;;;;;5023980;28;46508;-69
2023/08/16 10:56:47;;;;;;;13.97;3.50;;;29.50;5.80;;;;;;5023454;28;48554;-69
2023/08/16 10:59:14;;;;;;;4.00;2.50;;;29.50;7.10;;;;;;5024081;28;46531;-69
2023/08/16 11:01:49;;;;;;;3.37;2.10;;;29.60;6.90;;;;;;5024509;28;46607;-69
2023/08/16 11:04:15;;;;;;;4.00;2.13;;;29.70;7.00;;;;;;5024614;28;46387;-69
2023/08/16 11:06:41;;;;;;;4.30;2.33;;;29.80;5.70;;;;;;5024159;28;47191;-70
2023/08/16 11:09:07;;;;;;;7.13;2.63;;;29.90;7.00;;;;;;5020313;28;46544;-69
2023/08/16 11:11:33;;;;;;;3.80;1.97;;;29.80;6.10;;;;;;5021370;28;46497;-69
2023/08/16 11:14:03;;;;;;;4.83;2.50;;;29.70;7.00;;;;;;5024872;28;46846;-68
2023/08/16 11:16:29;;;;;;;6.03;2.20;;;29.70;5.10;;;;;;5021609;28;47595;-70
2023/08/16 11:18:59;;;;;;;4.43;2.27;;;29.80;6.10;;;;;;5007298;28;46791;-68
2023/08/16 11:21:25;;;;;;;6.13;2.13;;;29.80;6.00;;;;;;5023244;28;46364;-67
2023/08/16 11:23:54;;;;;;;3.80;2.40;;;29.90;6.10;;;;;;5027425;28;46687;-68
2023/08/16 11:26:21;;;;;;;3.93;2.20;;;29.80;5.10;;;;;;5028815;28;46724;-68
2023/08/16 11:28:47;;;;;;;5.17;2.43;;;29.90;5.20;;;;;;5015274;28;46491;-67
2023/08/16 11:31:13;;;;;;;10.10;2.53;;;29.80;6.00;;;;;;5030151;28;46865;-66
2023/08/16 11:33:41;;;;;;;4.73;2.40;;;29.70;5.10;;;;;;5012170;28;47048;-66
2023/08/16 11:36:11;;;;;;;4.27;2.40;;;29.80;5.10;;;;;;5033126;28;47600;-65
2023/08/16 11:38:39;;;;;;;6.90;2.83;;;29.90;6.10;;;;;;5030866;28;46554;-67
2023/08/16 11:41:05;;;;;;;3.80;2.33;;;29.70;6.10;;;;;;5034093;28;46494;-68
2023/08/16 11:43:32;;;;;;;5.23;3.53;;;29.80;6.00;;;;;;5024908;28;46600;-69
2023/08/16 11:45:59;;;;;;;7.87;3.10;;;29.90;5.20;;;;;;5036994;28;46122;-69
2023/08/16 11:48:25;;;;;;;7.33;2.70;;;29.90;6.20;;;;;;5040866;28;46394;-69
2023/08/16 11:50:52;;;;;;;4.40;2.40;;;29.90;6.10;;;;;;5041599;28;46709;-70
2023/08/16 11:53:19;;;;;;;6.20;2.57;;;29.80;5.50;;;;;;5040558;28;46866;-68
2023/08/16 11:56:04;;;;;;;6.73;3.17;;;29.80;4.40;;;;;;5038446;28;46491;-69
2023/08/16 11:58:40;;;;;;;4.87;2.40;;;29.80;5.30;;;;;;5035787;28;46459;-69
2023/08/16 12:01:09;;;;;;;6.00;2.57;;;29.90;5.60;;;;;;5041329;28;46565;-68
2023/08/16 12:03:35;;;;;;;6.53;2.83;;;29.90;5.70;;;;;;5041360;28;46544;-68
2023/08/16 12:06:09;;;;;;;6.73;2.90;;;29.90;5.10;;;;;;5040537;28;46539;-68
2023/08/16 12:08:35;;;;;;;7.23;2.43;;;30.00;5.50;;;;;;5043549;28;46849;-70
2023/08/16 12:11:02;;;;;;;5.30;2.60;;;30.70;5.50;;;;;;5040739;28;46377;-70
2023/08/16 12:13:28;;;;;;;7.50;2.47;;;29.90;5.30;;;;;;5041661;28;46370;-69
2023/08/16 12:15:54;;;;;;;5.60;2.10;;;29.90;4.20;;;;;;5040384;28;46932;-68
2023/08/16 12:18:23;;;;;;;5.43;2.67;;;30.00;5.10;;;;;;5042087;28;46409;-69
2023/08/16 12:20:52;;;;;;;4.40;2.60;;;30.00;4.70;;;;;;5039416;28;46443;-68
2023/08/16 12:23:19;;;;;;;7.00;2.90;;;30.10;4.60;;;;;;5036867;28;46342;-69
2023/08/16 12:25:45;;;;;;;10.93;2.47;;;30.00;3.00;;;;;;5040584;28;46761;-68
2023/08/16 12:28:11;;;;;;;5.67;2.77;;;30.10;4.10;;;;;;5048047;28;46502;-69
2023/08/16 12:30:37;;;;;;;5.63;2.40;;;30.10;4.20;;;;;;5040313;28;46559;-69
2023/08/16 12:33:06;;;;;;;5.93;2.80;;;30.10;4.20;;;;;;5043686;28;46447;-69
2023/08/16 12:35:32;;;;;;;4.43;2.40;;;30.30;3.60;;;;;;5036331;28;46500;-69
2023/08/16 12:37:59;;;;;;;7.43;2.73;;;30.40;4.60;;;;;;5035851;28;46798;-69
2023/08/16 12:40:28;;;;;;;5.50;2.90;;;30.40;4.20;;;;;;5045260;28;46279;-69
2023/08/16 12:42:54;;;;;;;7.03;2.60;;;30.30;4.10;;;;;;5039392;28;46357;-70